createdAt,value
2019-05-15T00:00:32.577Z,1023.05
2019-05-15T00:01:29.824Z,1023.02
2019-05-15T00:02:29.396Z,1023.03
2019-05-15T00:03:29.557Z,1023.07
2019-05-15T00:04:29.424Z,1023.01
2019-05-15T00:05:29.768Z,1023.03
2019-05-15T00:06:29.680Z,1023.02
2019-05-15T00:07:29.675Z,1023.05
2019-05-15T00:08:29.299Z,1023.03
2019-05-15T00:09:29.489Z,1023.00
2019-05-15T00:10:29.468Z,1023.03
2019-05-15T00:11:29.460Z,1022.98
2019-05-15T00:13:29.466Z,1023.02
2019-05-15T00:14:29.187Z,1022.98
2019-05-15T00:15:29.205Z,1022.98
2019-05-15T00:16:29.273Z,1022.97
2019-05-15T00:18:29.298Z,1022.92
2019-05-15T00:20:29.527Z,1022.94
2019-05-15T00:22:29.270Z,1022.88
2019-05-15T00:24:29.065Z,1022.83
2019-05-15T00:27:28.871Z,1022.78
2019-05-15T00:30:29.079Z,1022.75
2019-05-15T00:31:29.208Z,1022.75
2019-05-15T00:32:28.720Z,1022.71
2019-05-15T00:33:28.758Z,1022.72
2019-05-15T00:34:28.750Z,1022.71
2019-05-15T00:35:30.711Z,1022.70
2019-05-15T00:36:29.234Z,1022.68
2019-05-15T00:38:28.522Z,1022.71
2019-05-15T00:39:28.685Z,1022.72
2019-05-15T00:41:28.504Z,1022.70
2019-05-15T00:42:28.707Z,1022.71
2019-05-15T00:43:29.226Z,1022.72
2019-05-15T00:44:28.618Z,1022.67
2019-05-15T00:45:28.662Z,1022.69
2019-05-15T00:46:29.052Z,1022.70
2019-05-15T00:47:28.766Z,1022.67
2019-05-15T00:48:29.279Z,1022.71
2019-05-15T00:49:29.019Z,1022.70
2019-05-15T00:50:28.779Z,1022.68
2019-05-15T00:51:28.613Z,1022.63
2019-05-15T00:52:28.407Z,1022.63
2019-05-15T00:53:28.416Z,1022.67
2019-05-15T00:54:28.334Z,1022.66
2019-05-15T00:55:28.484Z,1022.62
2019-05-15T00:56:28.510Z,1022.65
2019-05-15T00:57:28.868Z,1022.67
2019-05-15T00:59:30.003Z,1022.65
2019-05-15T01:00:28.237Z,1022.63
2019-05-15T01:01:28.685Z,1022.60
2019-05-15T01:04:29.728Z,1022.53
2019-05-15T01:05:28.084Z,1022.57
2019-05-15T01:06:28.433Z,1022.55
2019-05-15T01:07:28.268Z,1022.58
2019-05-15T01:08:28.526Z,1022.59
2019-05-15T01:09:29.196Z,1022.55
2019-05-15T01:11:28.512Z,1022.58
2019-05-15T01:12:29.181Z,1022.54
2019-05-15T01:13:28.249Z,1022.55
2019-05-15T01:16:28.219Z,1022.49
2019-05-15T01:17:29.088Z,1022.47
2019-05-15T01:18:29.224Z,1022.46
2019-05-15T01:19:28.741Z,1022.47
2019-05-15T01:20:28.606Z,1022.44
2019-05-15T01:21:27.880Z,1022.46
2019-05-15T01:22:28.675Z,1022.46
2019-05-15T01:23:28.262Z,1022.46
2019-05-15T01:24:28.305Z,1022.46
2019-05-15T01:25:28.042Z,1022.47
2019-05-15T01:26:28.214Z,1022.45
2019-05-15T01:27:29.131Z,1022.43
2019-05-15T01:30:28.647Z,1022.45
2019-05-15T01:31:28.568Z,1022.49
2019-05-15T01:32:28.424Z,1022.43
2019-05-15T01:33:28.281Z,1022.48
2019-05-15T01:34:29.422Z,1022.49
2019-05-15T01:35:28.711Z,1022.49
2019-05-15T01:36:28.718Z,1022.47
2019-05-15T01:37:28.189Z,1022.46
2019-05-15T01:38:28.088Z,1022.51
2019-05-15T01:39:29.069Z,1022.47
2019-05-15T01:40:28.918Z,1022.45
2019-05-15T01:42:27.998Z,1022.48
2019-05-15T01:43:29.175Z,1022.51
2019-05-15T01:44:28.715Z,1022.45
2019-05-15T01:45:28.574Z,1022.48
2019-05-15T01:46:28.562Z,1022.41
2019-05-15T01:51:28.531Z,1022.39
2019-05-15T01:52:27.963Z,1022.40
2019-05-15T01:53:28.890Z,1022.38
2019-05-15T01:54:28.784Z,1022.39
2019-05-15T01:55:28.425Z,1022.39
2019-05-15T01:56:29.106Z,1022.38
2019-05-15T01:57:28.698Z,1022.37
2019-05-15T01:58:28.807Z,1022.40
2019-05-15T01:59:28.379Z,1022.40
2019-05-15T02:01:28.303Z,1022.37
2019-05-15T02:02:28.012Z,1022.41
2019-05-15T02:03:28.779Z,1022.39
2019-05-15T02:04:28.956Z,1022.39
2019-05-15T02:05:28.293Z,1022.38
2019-05-15T02:06:28.530Z,1022.38
2019-05-15T02:07:28.056Z,1022.37
2019-05-15T02:08:28.530Z,1022.33
2019-05-15T02:09:28.012Z,1022.32
2019-05-15T02:10:29.047Z,1022.31
2019-05-15T02:12:28.614Z,1022.34
2019-05-15T02:13:28.249Z,1022.30
2019-05-15T02:14:28.513Z,1022.29
2019-05-15T02:15:28.378Z,1022.32
2019-05-15T02:16:28.654Z,1022.34
2019-05-15T02:17:28.167Z,1022.33
2019-05-15T02:18:28.329Z,1022.31
2019-05-15T02:19:28.602Z,1022.29
2019-05-15T02:20:26.217Z,1022.34
2019-05-15T02:21:28.353Z,1022.31
2019-05-15T02:23:28.082Z,1022.32
2019-05-15T02:24:28.215Z,1022.30
2019-05-15T02:25:28.045Z,1022.28
2019-05-15T02:26:28.199Z,1022.25
2019-05-15T02:27:26.249Z,1022.28
2019-05-15T02:28:26.020Z,1022.25
2019-05-15T02:29:28.395Z,1022.27
2019-05-15T02:30:30.183Z,1022.26
2019-05-15T02:31:25.944Z,1022.29
2019-05-15T02:32:25.991Z,1022.26
2019-05-15T02:33:29.751Z,1022.26
2019-05-15T02:34:25.742Z,1022.26
2019-05-15T02:35:29.259Z,1022.24
2019-05-15T02:36:29.048Z,1022.22
2019-05-15T02:37:29.106Z,1022.20
2019-05-15T02:38:29.254Z,1022.16
2019-05-15T02:39:28.611Z,1022.20
2019-05-15T02:40:28.826Z,1022.16
2019-05-15T02:41:25.472Z,1022.17
2019-05-15T02:42:28.743Z,1022.15
2019-05-15T02:43:25.429Z,1022.15
2019-05-15T02:44:25.477Z,1022.17
2019-05-15T02:45:25.846Z,1022.17
2019-05-15T02:46:25.524Z,1022.11
2019-05-15T02:47:28.865Z,1022.16
2019-05-15T02:48:25.314Z,1022.18
2019-05-15T02:49:25.472Z,1022.18
2019-05-15T02:50:25.433Z,1022.15
2019-05-15T02:51:25.515Z,1022.17
2019-05-15T02:52:25.387Z,1022.15
2019-05-15T02:53:25.261Z,1022.18
2019-05-15T02:55:25.455Z,1022.14
2019-05-15T02:56:25.292Z,1022.15
2019-05-15T02:57:25.644Z,1022.12
2019-05-15T02:58:25.322Z,1022.13
2019-05-15T02:59:25.164Z,1022.13
2019-05-15T03:00:37.947Z,1022.10
2019-05-15T03:02:25.164Z,1022.07
2019-05-15T03:03:25.413Z,1022.07
2019-05-15T03:04:25.107Z,1022.08
2019-05-15T03:05:24.877Z,1022.07
2019-05-15T03:06:24.932Z,1022.05
2019-05-15T03:07:25.044Z,1022.04
2019-05-15T03:09:25.064Z,1022.08
2019-05-15T03:10:25.042Z,1022.08
2019-05-15T03:11:24.774Z,1022.07
2019-05-15T03:12:24.780Z,1022.07
2019-05-15T03:13:24.676Z,1022.08
2019-05-15T03:14:25.121Z,1022.07
2019-05-15T03:15:24.707Z,1022.07
2019-05-15T03:16:25.430Z,1022.06
2019-05-15T03:17:24.703Z,1022.05
2019-05-15T03:18:24.729Z,1022.03
2019-05-15T03:19:24.592Z,1021.99
2019-05-15T03:20:24.582Z,1021.97
2019-05-15T03:21:24.559Z,1021.99
2019-05-15T03:22:29.124Z,1021.93
2019-05-15T03:23:24.810Z,1021.95
2019-05-15T03:25:24.446Z,1021.96
2019-05-15T03:26:24.420Z,1021.95
2019-05-15T03:27:24.457Z,1021.95
2019-05-15T03:28:24.582Z,1021.96
2019-05-15T03:29:24.458Z,1021.95
2019-05-15T03:30:24.713Z,1021.94
2019-05-15T03:31:47.741Z,1021.99
2019-05-15T03:32:34.373Z,1021.98
2019-05-15T03:33:27.781Z,1021.97
2019-05-15T03:34:31.065Z,1021.97
2019-05-15T03:35:24.154Z,1022.01
2019-05-15T03:36:24.716Z,1022.00
2019-05-15T03:37:24.435Z,1021.98
2019-05-15T03:38:24.215Z,1021.94
2019-05-15T03:40:24.098Z,1021.97
2019-05-15T03:41:24.089Z,1021.97
2019-05-15T03:42:23.920Z,1021.95
2019-05-15T03:43:24.028Z,1021.91
2019-05-15T03:44:24.178Z,1021.92
2019-05-15T03:45:23.932Z,1021.96
2019-05-15T03:46:25.116Z,1021.94
2019-05-15T03:47:24.073Z,1021.96
2019-05-15T03:48:23.774Z,1021.93
2019-05-15T03:50:24.112Z,1021.98
2019-05-15T03:51:23.793Z,1022.00
2019-05-15T03:52:23.979Z,1021.98
2019-05-15T03:53:23.727Z,1021.96
2019-05-15T03:54:23.713Z,1021.98
2019-05-15T03:55:23.597Z,1021.94
2019-05-15T03:56:23.586Z,1021.96
2019-05-15T03:57:24.147Z,1021.95
2019-05-15T03:58:23.768Z,1021.98
2019-05-15T03:59:23.588Z,1021.99
2019-05-15T04:00:23.572Z,1021.98
2019-05-15T04:01:33.554Z,1021.99
2019-05-15T04:02:23.796Z,1021.96
2019-05-15T04:03:23.676Z,1021.98
2019-05-15T04:04:23.581Z,1021.98
2019-05-15T04:06:23.428Z,1021.93
2019-05-15T04:07:23.278Z,1021.93
2019-05-15T04:08:23.497Z,1021.95
2019-05-15T04:09:23.526Z,1021.94
2019-05-15T04:10:23.582Z,1021.97
2019-05-15T04:11:23.182Z,1021.99
2019-05-15T04:14:23.292Z,1022.00
2019-05-15T04:15:23.456Z,1022.00
2019-05-15T04:17:23.262Z,1021.97
2019-05-15T04:18:23.098Z,1021.98
2019-05-15T04:19:23.069Z,1022.03
2019-05-15T04:20:22.945Z,1022.01
2019-05-15T04:21:23.238Z,1022.01
2019-05-15T04:22:22.923Z,1022.03
2019-05-15T04:23:23.221Z,1021.99
2019-05-15T04:24:22.850Z,1022.03
2019-05-15T04:25:22.908Z,1022.02
2019-05-15T04:26:23.194Z,1022.06
2019-05-15T04:27:23.180Z,1022.06
2019-05-15T04:28:22.949Z,1022.09
2019-05-15T04:29:22.806Z,1022.08
2019-05-15T04:30:22.697Z,1022.13
2019-05-15T04:31:23.019Z,1022.11
2019-05-15T04:32:22.726Z,1022.17
2019-05-15T04:33:23.016Z,1022.15
2019-05-15T04:34:23.110Z,1022.15
2019-05-15T04:35:22.579Z,1022.17
2019-05-15T04:36:22.678Z,1022.13
2019-05-15T04:37:23.991Z,1022.12
2019-05-15T04:38:22.674Z,1022.15
2019-05-15T04:39:22.572Z,1022.16
2019-05-15T04:40:23.016Z,1022.15
2019-05-15T04:41:22.643Z,1022.13
2019-05-15T04:42:22.731Z,1022.15
2019-05-15T04:43:23.422Z,1022.14
2019-05-15T04:44:22.698Z,1022.15
2019-05-15T04:45:22.699Z,1022.15
2019-05-15T04:46:22.294Z,1022.13
2019-05-15T04:47:22.758Z,1022.14
2019-05-15T04:48:22.414Z,1022.13
2019-05-15T04:49:22.806Z,1022.14
2019-05-15T04:50:22.331Z,1022.11
2019-05-15T04:51:22.257Z,1022.17
2019-05-15T04:52:22.192Z,1022.13
2019-05-15T04:55:23.095Z,1022.08
2019-05-15T04:57:22.129Z,1022.10
2019-05-15T04:58:22.120Z,1022.10
2019-05-15T04:59:22.052Z,1022.13
2019-05-15T05:00:22.212Z,1022.12
2019-05-15T05:01:24.020Z,1022.12
2019-05-15T05:02:26.854Z,1022.09
2019-05-15T05:04:22.100Z,1022.08
2019-05-15T05:06:22.000Z,1022.09
2019-05-15T05:07:22.018Z,1022.03
2019-05-15T05:08:22.345Z,1022.08
2019-05-15T05:10:21.874Z,1022.05
2019-05-15T05:11:24.070Z,1022.07
2019-05-15T05:12:21.860Z,1022.06
2019-05-15T05:13:21.622Z,1022.12
2019-05-15T05:14:21.596Z,1022.09
2019-05-15T05:15:21.875Z,1022.15
2019-05-15T05:16:21.572Z,1022.15
2019-05-15T05:17:21.725Z,1022.20
2019-05-15T05:18:21.656Z,1022.18
2019-05-15T05:19:21.480Z,1022.18
2019-05-15T05:20:21.819Z,1022.17
2019-05-15T05:21:21.552Z,1022.18
2019-05-15T05:22:21.860Z,1022.21
2019-05-15T05:23:21.464Z,1022.25
2019-05-15T05:24:21.754Z,1022.22
2019-05-15T05:25:21.342Z,1022.23
2019-05-15T05:26:21.412Z,1022.24
2019-05-15T05:27:21.332Z,1022.18
2019-05-15T05:28:21.696Z,1022.23
2019-05-15T05:29:21.258Z,1022.20
2019-05-15T05:30:21.427Z,1022.17
2019-05-15T05:31:21.197Z,1022.17
2019-05-15T05:32:30.907Z,1022.22
2019-05-15T05:33:21.241Z,1022.18
2019-05-15T05:34:21.597Z,1022.20
2019-05-15T05:35:21.263Z,1022.22
2019-05-15T05:36:21.366Z,1022.25
2019-05-15T05:37:21.218Z,1022.22
2019-05-15T05:38:21.198Z,1022.25
2019-05-15T05:39:23.574Z,1022.24
2019-05-15T05:40:22.634Z,1022.21
2019-05-15T05:42:24.028Z,1022.24
2019-05-15T05:44:21.143Z,1022.26
2019-05-15T05:45:20.912Z,1022.24
2019-05-15T05:46:21.665Z,1022.24
2019-05-15T05:47:20.916Z,1022.23
2019-05-15T05:48:20.859Z,1022.22
2019-05-15T05:49:20.851Z,1022.23
2019-05-15T05:50:20.774Z,1022.23
2019-05-15T05:51:20.822Z,1022.23
2019-05-15T05:52:21.016Z,1022.23
2019-05-15T05:53:21.457Z,1022.18
2019-05-15T05:54:21.028Z,1022.18
2019-05-15T05:55:20.641Z,1022.19
2019-05-15T05:58:20.999Z,1022.19
2019-05-15T05:59:20.562Z,1022.18
2019-05-15T06:00:20.617Z,1022.20
2019-05-15T06:01:20.648Z,1022.16
2019-05-15T06:02:20.546Z,1022.18
2019-05-15T06:03:20.914Z,1022.18
2019-05-15T06:04:20.445Z,1022.15
2019-05-15T06:05:20.731Z,1022.14
2019-05-15T06:06:20.588Z,1022.15
2019-05-15T06:07:20.513Z,1022.15
2019-05-15T06:08:20.708Z,1022.12
2019-05-15T06:09:20.467Z,1022.16
2019-05-15T06:10:20.326Z,1022.11
2019-05-15T06:11:21.021Z,1022.15
2019-05-15T06:12:20.598Z,1022.15
2019-05-15T06:13:20.306Z,1022.12
2019-05-15T06:14:20.414Z,1022.12
2019-05-15T06:15:20.231Z,1022.16
2019-05-15T06:16:20.199Z,1022.14
2019-05-15T06:17:21.102Z,1022.12
2019-05-15T06:18:20.192Z,1022.12
2019-05-15T06:19:23.280Z,1022.12
2019-05-15T06:20:20.154Z,1022.10
2019-05-15T06:21:20.104Z,1022.12
2019-05-15T06:22:20.064Z,1022.13
2019-05-15T06:23:24.295Z,1022.17
2019-05-15T06:24:20.319Z,1022.15
2019-05-15T06:26:20.583Z,1022.21
2019-05-15T06:27:20.128Z,1022.19
2019-05-15T06:28:20.520Z,1022.22
2019-05-15T06:29:20.026Z,1022.16
2019-05-15T06:30:26.537Z,1022.17
2019-05-15T06:31:20.227Z,1022.18
2019-05-15T06:32:19.961Z,1022.20
2019-05-15T06:34:19.812Z,1022.20
2019-05-15T06:36:19.932Z,1022.19
2019-05-15T06:37:20.039Z,1022.20
2019-05-15T06:38:19.903Z,1022.19
2019-05-15T06:39:20.026Z,1022.21
2019-05-15T06:40:19.803Z,1022.21
2019-05-15T06:41:19.781Z,1022.17
2019-05-15T06:42:19.791Z,1022.17
2019-05-15T06:43:19.787Z,1022.15
2019-05-15T06:44:19.763Z,1022.17
2019-05-15T06:45:20.142Z,1022.17
2019-05-15T06:46:19.961Z,1022.19
2019-05-15T06:48:19.669Z,1022.13
2019-05-15T06:51:19.571Z,1022.15
2019-05-15T06:52:19.641Z,1022.20
2019-05-15T06:54:19.697Z,1022.16
2019-05-15T06:55:21.972Z,1022.13
2019-05-15T06:56:19.511Z,1022.14
2019-05-15T06:57:20.015Z,1022.12
2019-05-15T06:58:20.089Z,1022.13
2019-05-15T06:59:21.402Z,1022.16
2019-05-15T07:00:19.350Z,1022.12
2019-05-15T07:01:19.640Z,1022.17
2019-05-15T07:02:19.430Z,1022.16
2019-05-15T07:03:25.507Z,1022.17
2019-05-15T07:04:19.380Z,1022.18
2019-05-15T07:05:19.598Z,1022.16
2019-05-15T07:07:19.256Z,1022.16
2019-05-15T07:08:19.145Z,1022.19
2019-05-15T07:09:19.119Z,1022.14
2019-05-15T07:10:19.117Z,1022.13
2019-05-15T07:11:19.396Z,1022.21
2019-05-15T07:12:19.358Z,1022.10
2019-05-15T07:13:19.302Z,1022.10
2019-05-15T07:14:19.530Z,1022.09
2019-05-15T07:15:19.114Z,1022.03
2019-05-15T07:16:19.033Z,1022.10
2019-05-15T07:17:19.588Z,1022.09
2019-05-15T07:18:19.875Z,1022.09
2019-05-15T07:19:19.228Z,1022.11
2019-05-15T07:20:18.905Z,1022.11
2019-05-15T07:21:20.649Z,1022.19
2019-05-15T07:22:18.886Z,1022.22
2019-05-15T07:24:19.241Z,1022.27
2019-05-15T07:25:19.148Z,1022.27
2019-05-15T07:26:18.938Z,1022.37
2019-05-15T07:27:18.981Z,1022.43
2019-05-15T07:28:19.146Z,1022.41
2019-05-15T07:29:19.110Z,1022.46
2019-05-15T07:30:18.872Z,1022.50
2019-05-15T07:31:19.036Z,1022.55
2019-05-15T07:32:19.339Z,1022.60
2019-05-15T07:33:34.253Z,1022.85
2019-05-15T07:34:18.926Z,1023.95
2019-05-15T07:35:19.285Z,1024.93
2019-05-15T07:36:19.510Z,1025.25
2019-05-15T07:37:19.145Z,1025.71
2019-05-15T07:38:19.097Z,1026.20
2019-05-15T07:39:18.718Z,1026.72
2019-05-15T07:40:19.335Z,1027.02
2019-05-15T07:41:18.706Z,1027.12
2019-05-15T07:43:18.557Z,1027.51
2019-05-15T07:44:18.991Z,1027.32
2019-05-15T07:45:19.776Z,1027.28
2019-05-15T07:46:18.825Z,1028.04
2019-05-15T07:47:19.064Z,1028.77
2019-05-15T07:48:18.980Z,1029.00
2019-05-15T07:49:18.530Z,1029.15
2019-05-15T07:50:19.715Z,1029.06
2019-05-15T07:53:19.886Z,1028.85
2019-05-15T07:54:18.505Z,1029.11
2019-05-15T07:55:18.642Z,1029.22
2019-05-15T07:56:18.668Z,1029.23
2019-05-15T07:57:19.395Z,1028.53
2019-05-15T07:58:21.067Z,1025.91
2019-05-15T07:59:18.928Z,1024.52
2019-05-15T08:00:19.015Z,1025.92
2019-05-15T08:02:19.048Z,1028.59
2019-05-15T08:03:18.641Z,1029.19
2019-05-15T08:04:26.093Z,1029.63
2019-05-15T08:05:18.422Z,1029.62
2019-05-15T08:06:18.879Z,1029.31
2019-05-15T08:09:18.261Z,1029.15
2019-05-15T08:10:18.906Z,1029.42
2019-05-15T08:11:23.909Z,1029.59
2019-05-15T08:12:19.291Z,1029.53
2019-05-15T08:13:18.827Z,1029.34
2019-05-15T08:14:18.664Z,1029.38
2019-05-15T08:15:18.397Z,1028.86
2019-05-15T08:16:18.279Z,1026.06
2019-05-15T08:17:21.314Z,1026.38
2019-05-15T08:18:18.290Z,1028.15
2019-05-15T08:19:18.517Z,1028.96
2019-05-15T08:20:18.443Z,1028.60
2019-05-15T08:21:18.718Z,1027.93
2019-05-15T08:22:18.363Z,1027.70
2019-05-15T08:25:31.198Z,1027.30
2019-05-15T08:26:17.993Z,1027.38
2019-05-15T08:28:19.317Z,1027.23
2019-05-15T08:29:21.119Z,1026.89
2019-05-15T08:30:18.478Z,1026.73
2019-05-15T08:31:18.639Z,1026.67
2019-05-15T08:32:19.038Z,1026.31
2019-05-15T08:33:18.366Z,1026.25
2019-05-15T08:34:19.816Z,1026.38
2019-05-15T08:35:19.102Z,1026.32
2019-05-15T08:36:18.464Z,1026.09
2019-05-15T08:37:18.331Z,1026.00
2019-05-15T08:38:18.459Z,1025.92
2019-05-15T08:39:19.039Z,1025.76
2019-05-15T08:40:18.026Z,1025.50
2019-05-15T08:42:18.822Z,1025.22
2019-05-15T08:44:18.684Z,1024.78
2019-05-15T08:45:18.977Z,1024.58
2019-05-15T08:46:18.788Z,1024.46
2019-05-15T08:47:18.959Z,1024.36
2019-05-15T08:48:18.621Z,1024.29
2019-05-15T08:49:20.253Z,1024.20
2019-05-15T08:50:18.480Z,1024.15
2019-05-15T08:51:19.332Z,1024.09
2019-05-15T08:54:18.459Z,1023.96
2019-05-15T08:55:20.028Z,1023.91
2019-05-15T08:56:19.480Z,1023.80
2019-05-15T08:57:20.487Z,1023.77
2019-05-15T08:58:20.122Z,1023.76
2019-05-15T08:59:18.758Z,1023.79
2019-05-15T09:00:18.568Z,1023.76
2019-05-15T09:01:18.254Z,1023.68
2019-05-15T09:02:18.566Z,1023.76
2019-05-15T09:04:27.937Z,1023.69
2019-05-15T09:05:18.807Z,1023.66
2019-05-15T09:06:20.550Z,1023.68
2019-05-15T09:07:18.122Z,1023.68
2019-05-15T09:08:19.934Z,1022.50
2019-05-15T09:09:18.238Z,1023.94
2019-05-15T09:10:18.364Z,1023.70
2019-05-15T09:11:19.209Z,1023.71
2019-05-15T09:13:18.944Z,1021.78
2019-05-15T09:14:18.471Z,1021.66
2019-05-15T09:15:18.496Z,1023.91
2019-05-15T09:16:18.495Z,1024.01
2019-05-15T09:17:18.208Z,1024.09
2019-05-15T09:19:18.490Z,1022.95
2019-05-15T09:20:19.423Z,1021.65
2019-05-15T09:21:19.234Z,1021.59
2019-05-15T09:22:18.701Z,1024.11
2019-05-15T09:23:19.428Z,1024.14
2019-05-15T09:24:19.875Z,1024.36
2019-05-15T09:25:19.421Z,1024.38
2019-05-15T09:26:19.512Z,1024.54
2019-05-15T09:27:18.498Z,1024.75
2019-05-15T09:28:18.986Z,1021.87
2019-05-15T09:29:18.433Z,1021.93
2019-05-15T09:31:19.255Z,1024.18
2019-05-15T09:32:19.123Z,1023.13
2019-05-15T09:33:19.943Z,1021.63
2019-05-15T09:34:18.517Z,1021.48
2019-05-15T09:35:18.666Z,1021.44
2019-05-15T09:36:20.130Z,1021.37
2019-05-15T09:37:18.140Z,1025.33
2019-05-15T09:38:18.495Z,1021.27
2019-05-15T09:39:18.239Z,1021.36
2019-05-15T09:40:18.599Z,1021.42
2019-05-15T09:41:17.980Z,1021.65
2019-05-15T09:42:18.030Z,1025.53
2019-05-15T09:43:18.319Z,1025.79
2019-05-15T09:44:21.694Z,1021.35
2019-05-15T09:45:18.017Z,1026.09
2019-05-15T09:46:18.455Z,1025.97
2019-05-15T09:47:18.803Z,1025.69
2019-05-15T09:48:19.803Z,1021.35
2019-05-15T09:49:18.211Z,1026.06
2019-05-15T09:50:19.376Z,1024.72
2019-05-15T09:51:18.356Z,1026.48
2019-05-15T09:52:22.483Z,1026.72
2019-05-15T09:53:18.895Z,1021.34
2019-05-15T09:54:19.347Z,1021.27
2019-05-15T09:55:18.068Z,1021.37
2019-05-15T09:56:18.732Z,1021.19
2019-05-15T09:57:18.832Z,1021.12
2019-05-15T09:58:20.288Z,1021.10
2019-05-15T09:59:18.605Z,1021.51
2019-05-15T10:00:18.933Z,1021.11
2019-05-15T10:01:19.582Z,1021.05
2019-05-15T10:02:18.981Z,1020.91
2019-05-15T10:03:18.986Z,1020.84
2019-05-15T10:04:18.994Z,1020.78
2019-05-15T10:05:18.890Z,1020.78
2019-05-15T10:06:20.104Z,1020.75
2019-05-15T10:07:19.302Z,1020.85
2019-05-15T10:08:20.975Z,1023.56
2019-05-15T10:09:18.842Z,1023.69
2019-05-15T10:10:19.223Z,1020.97
2019-05-15T10:11:19.638Z,1020.80
2019-05-15T10:12:18.342Z,1020.77
2019-05-15T10:13:18.431Z,1020.78
2019-05-15T10:15:18.624Z,1021.14
2019-05-15T10:16:19.851Z,1020.86
2019-05-15T10:17:18.392Z,1020.85
2019-05-15T10:18:19.051Z,1020.70
2019-05-15T10:19:18.596Z,1020.61
2019-05-15T10:20:18.780Z,1020.64
2019-05-15T10:21:18.664Z,1020.62
2019-05-15T10:22:18.686Z,1020.64
2019-05-15T10:23:19.619Z,1022.46
2019-05-15T10:25:19.005Z,1022.14
2019-05-15T10:26:19.237Z,1022.22
2019-05-15T10:27:18.072Z,1022.23
2019-05-15T10:28:18.835Z,1021.64
2019-05-15T10:29:17.165Z,1021.85
2019-05-15T10:30:18.962Z,1021.92
2019-05-15T10:33:20.563Z,1020.53
2019-05-15T10:34:18.351Z,1020.56
2019-05-15T10:35:25.545Z,1020.64
2019-05-15T10:36:18.882Z,1021.31
2019-05-15T10:37:18.534Z,1021.15
2019-05-15T10:39:18.191Z,1020.82
2019-05-15T10:40:20.156Z,1020.78
2019-05-15T10:41:18.743Z,1020.47
2019-05-15T10:42:19.315Z,1020.41
2019-05-15T10:43:20.090Z,1020.40
2019-05-15T10:44:18.164Z,1020.33
2019-05-15T10:45:19.227Z,1020.30
2019-05-15T10:46:19.047Z,1020.33
2019-05-15T10:47:16.847Z,1020.30
2019-05-15T10:48:19.014Z,1020.41
2019-05-15T10:49:18.895Z,1020.36
2019-05-15T10:50:19.091Z,1020.44
2019-05-15T10:53:18.695Z,1021.15
2019-05-15T10:54:19.015Z,1020.48
2019-05-15T10:56:18.622Z,1020.31
2019-05-15T10:57:18.912Z,1020.36
2019-05-15T10:58:18.352Z,1020.39
2019-05-15T10:59:18.314Z,1020.36
2019-05-15T11:00:19.508Z,1020.45
2019-05-15T11:02:19.043Z,1020.53
2019-05-15T11:03:19.605Z,1021.40
2019-05-15T11:04:18.123Z,1020.73
2019-05-15T11:05:18.042Z,1021.22
2019-05-15T11:06:18.342Z,1020.99
2019-05-15T11:07:19.535Z,1020.94
2019-05-15T11:08:18.843Z,1020.19
2019-05-15T11:09:18.563Z,1020.14
2019-05-15T11:10:18.575Z,1020.10
2019-05-15T11:11:18.375Z,1020.07
2019-05-15T11:12:18.903Z,1020.06
2019-05-15T11:13:18.665Z,1020.04
2019-05-15T11:14:18.421Z,1020.06
2019-05-15T11:15:18.476Z,1020.10
2019-05-15T11:16:20.765Z,1020.13
2019-05-15T11:17:20.026Z,1020.10
2019-05-15T11:19:16.617Z,1020.11
2019-05-15T11:20:18.830Z,1020.92
2019-05-15T11:21:19.051Z,1020.80
2019-05-15T11:23:19.561Z,1020.16
2019-05-15T11:24:16.574Z,1020.07
2019-05-15T11:25:16.965Z,1019.95
2019-05-15T11:26:19.251Z,1019.90
2019-05-15T11:28:16.851Z,1019.80
2019-05-15T11:29:16.712Z,1019.85
2019-05-15T11:30:19.278Z,1019.86
2019-05-15T11:31:17.469Z,1019.88
2019-05-15T11:32:17.237Z,1019.90
2019-05-15T11:33:18.834Z,1019.93
2019-05-15T11:34:18.610Z,1019.99
2019-05-15T11:35:18.712Z,1020.02
2019-05-15T11:36:18.487Z,1019.98
2019-05-15T11:37:18.867Z,1020.02
2019-05-15T11:38:16.595Z,1020.55
2019-05-15T11:39:18.212Z,1020.00
2019-05-15T11:40:18.885Z,1019.93
2019-05-15T11:42:17.315Z,1019.97
2019-05-15T11:43:19.364Z,1019.92
2019-05-15T11:44:18.769Z,1019.96
2019-05-15T11:46:18.544Z,1020.10
2019-05-15T11:47:18.432Z,1019.95
2019-05-15T11:48:16.518Z,1019.93
2019-05-15T11:49:18.250Z,1019.94
2019-05-15T11:50:19.996Z,1020.09
2019-05-15T11:51:18.431Z,1020.04
2019-05-15T11:52:18.798Z,1019.96
2019-05-15T11:53:19.084Z,1019.75
2019-05-15T11:54:18.903Z,1019.73
2019-05-15T11:55:16.884Z,1019.68
2019-05-15T11:57:18.480Z,1019.68
2019-05-15T11:58:18.973Z,1019.66
2019-05-15T11:59:18.450Z,1019.68
2019-05-15T12:00:26.184Z,1019.67
2019-05-15T12:01:19.120Z,1019.78
2019-05-15T12:02:18.657Z,1019.79
2019-05-15T12:03:18.644Z,1019.84
2019-05-15T12:04:27.655Z,1019.87
2019-05-15T12:05:18.295Z,1019.84
2019-05-15T12:06:22.011Z,1019.79
2019-05-15T12:07:18.168Z,1019.74
2019-05-15T12:08:18.544Z,1019.74
2019-05-15T12:09:18.569Z,1019.63
2019-05-15T12:10:18.468Z,1019.61
2019-05-15T12:11:31.840Z,1019.60
2019-05-15T12:12:18.081Z,1019.64
2019-05-15T12:13:18.698Z,1019.61
2019-05-15T12:14:19.401Z,1019.54
2019-05-15T12:15:18.587Z,1019.51
2019-05-15T12:16:16.039Z,1019.58
2019-05-15T12:17:18.814Z,1019.59
2019-05-15T12:18:16.335Z,1019.53
2019-05-15T12:19:17.480Z,1019.49
2019-05-15T12:20:19.298Z,1019.54
2019-05-15T12:21:19.705Z,1019.53
2019-05-15T12:22:15.981Z,1019.57
2019-05-15T12:23:16.337Z,1019.81
2019-05-15T12:24:15.873Z,1019.80
2019-05-15T12:26:16.295Z,1019.89
2019-05-15T12:27:18.920Z,1019.61
2019-05-15T12:28:15.992Z,1019.75
2019-05-15T12:29:15.992Z,1019.56
2019-05-15T12:30:15.809Z,1019.53
2019-05-15T12:31:15.942Z,1019.56
2019-05-15T12:32:40.665Z,1019.48
2019-05-15T12:38:18.093Z,1019.51
2019-05-15T12:39:21.800Z,1019.52
2019-05-15T13:00:18.580Z,1019.46
2019-05-15T13:01:18.465Z,1019.44
2019-05-15T13:02:15.583Z,1019.46
2019-05-15T13:03:15.476Z,1019.46
2019-05-15T13:04:15.536Z,1019.43
2019-05-15T13:05:15.582Z,1019.43
2019-05-15T13:06:15.854Z,1019.47
2019-05-15T13:07:16.974Z,1019.44
2019-05-15T13:08:15.527Z,1019.45
2019-05-15T13:09:15.387Z,1019.35
2019-05-15T13:11:17.898Z,1019.41
2019-05-15T13:12:18.053Z,1019.36
2019-05-15T13:13:15.643Z,1019.37
2019-05-15T13:14:15.443Z,1019.41
2019-05-15T13:17:15.513Z,1019.56
2019-05-15T13:18:17.853Z,1019.61
2019-05-15T13:19:18.734Z,1019.63
2019-05-15T13:20:18.293Z,1019.70
2019-05-15T13:21:15.421Z,1019.73
2019-05-15T13:22:18.251Z,1019.78
2019-05-15T13:24:15.834Z,1019.65
2019-05-15T13:26:23.635Z,1019.70
2019-05-15T13:27:15.207Z,1019.75
2019-05-15T13:28:15.432Z,1019.67
2019-05-15T13:29:18.024Z,1019.69
2019-05-15T13:30:15.386Z,1019.58
2019-05-15T13:31:15.200Z,1019.57
2019-05-15T13:32:15.164Z,1019.58
2019-05-15T13:33:15.557Z,1019.44
2019-05-15T13:34:15.253Z,1019.35
2019-05-15T13:35:15.330Z,1019.35
2019-05-15T13:37:26.405Z,1019.28
2019-05-15T13:38:15.526Z,1019.31
2019-05-15T13:39:15.260Z,1019.35
2019-05-15T13:40:15.197Z,1019.29
2019-05-15T13:41:15.208Z,1019.26
2019-05-15T13:44:15.069Z,1019.24
2019-05-15T13:45:18.177Z,1019.24
2019-05-15T13:47:15.144Z,1019.23
2019-05-15T13:48:17.502Z,1019.17
2019-05-15T13:49:15.375Z,1019.11
2019-05-15T13:50:15.032Z,1019.17
2019-05-15T13:51:15.032Z,1019.15
2019-05-15T13:52:15.335Z,1019.14
2019-05-15T13:53:15.006Z,1019.19
2019-05-15T13:54:15.119Z,1019.23
2019-05-15T13:55:14.985Z,1019.29
2019-05-15T13:56:15.313Z,1019.21
2019-05-15T13:57:15.062Z,1019.10
2019-05-15T13:58:15.218Z,1019.12
2019-05-15T14:00:15.942Z,1018.98
2019-05-15T14:01:19.246Z,1019.08
2019-05-15T14:02:18.577Z,1019.06
2019-05-15T14:08:14.913Z,1018.94
2019-05-15T14:10:14.864Z,1018.96
2019-05-15T14:11:14.944Z,1019.10
2019-05-15T14:12:15.038Z,1019.09
2019-05-15T14:13:14.921Z,1019.03
2019-05-15T14:15:14.947Z,1018.92
2019-05-15T14:16:15.295Z,1018.87